LRI148 LFRS-LGKR
Flight info
| Callsign | LRI148 |
|---|---|
| Flight time | 2h 33m |
| Altitude | 29000 |
| Route | LUGEN UM184 TUPAR DCT DIDRU DCT BEBIX/N0461F280 DCT VALKU/N0472F290 DCT TIS DCT MEBAK/N0453F350 DCT GIPNO DCT BALSI DCT OBIGO DCT ROBEX DCT LAPRI/N0450F360 DCT MOGBO/N0453F350 DCT IBENI DCT KOFER DCT RODON DCT LIMJA N732 PITAS |
| Aircraft | A320/M-SDE3FGHIRWY/LB1 |
Departure
| Time | 2026-04-27 15:57 |
|---|---|
| Airport | Nantes Atlantique Airport (LFRS) |
Arrival
| Time | 2026-04-27 18:30 |
|---|---|
| Airport | Corfu Ioannis Kapodistrias International Airport (LGKR) |
| Time | Latitude | Longitude | Altitude | Speed | Heading |
|---|---|---|---|---|---|
| 2026-04-27 15:28 | 47.15714 | -1.60268 | 97 ft | 0 kts | 44° |
| 2026-04-27 15:43 | 47.15712 | -1.60271 | 98 ft | 3 kts | 44° |
| 2026-04-27 15:43 | 47.15693 | -1.60298 | 98 ft | 4 kts | 38° |
| 2026-04-27 15:44 | 47.15671 | -1.60320 | 97 ft | 4 kts | 22° |
| 2026-04-27 15:44 | 47.15647 | -1.60326 | 98 ft | 4 kts | 332° |
| 2026-04-27 15:44 | 47.15642 | -1.60322 | 98 ft | 0 kts | 319° |
| 2026-04-27 15:49 | 47.15720 | -1.60448 | 99 ft | 13 kts | 284° |
| 2026-04-27 15:49 | 47.15672 | -1.60535 | 98 ft | 11 kts | 206° |
| 2026-04-27 15:49 | 47.15615 | -1.60578 | 100 ft | 8 kts | 207° |
| 2026-04-27 15:49 | 47.15566 | -1.60615 | 100 ft | 11 kts | 207° |
| 2026-04-27 15:50 | 47.15465 | -1.60692 | 97 ft | 20 kts | 207° |
| 2026-04-27 15:50 | 47.15349 | -1.60779 | 98 ft | 17 kts | 207° |
| 2026-04-27 15:50 | 47.15244 | -1.60859 | 98 ft | 17 kts | 207° |
| 2026-04-27 15:50 | 47.15138 | -1.60939 | 99 ft | 16 kts | 207° |
| 2026-04-27 15:51 | 47.15023 | -1.61028 | 98 ft | 20 kts | 208° |
| 2026-04-27 15:51 | 47.14905 | -1.61120 | 97 ft | 18 kts | 207° |
| 2026-04-27 15:51 | 47.14798 | -1.61197 | 95 ft | 17 kts | 208° |
| 2026-04-27 15:51 | 47.14688 | -1.61283 | 97 ft | 19 kts | 206° |
| 2026-04-27 15:52 | 47.14573 | -1.61370 | 94 ft | 19 kts | 208° |
| 2026-04-27 15:52 | 47.14462 | -1.61455 | 91 ft | 17 kts | 207° |
| 2026-04-27 15:52 | 47.14355 | -1.61538 | 86 ft | 19 kts | 208° |
| 2026-04-27 15:52 | 47.14241 | -1.61624 | 86 ft | 18 kts | 206° |
| 2026-04-27 15:53 | 47.14180 | -1.61680 | 82 ft | 0 kts | 227° |
| 2026-04-27 15:55 | 47.14142 | -1.61797 | 81 ft | 17 kts | 248° |
| 2026-04-27 15:55 | 47.14183 | -1.61922 | 81 ft | 15 kts | 348° |
| 2026-04-27 15:56 | 47.14240 | -1.61897 | 82 ft | 0 kts | 27° |
| 2026-04-27 15:56 | 47.14291 | -1.61855 | 82 ft | 36 kts | 29° |
| 2026-04-27 15:56 | 47.14718 | -1.61532 | 97 ft | 101 kts | 27° |
| 2026-04-27 15:56 | 47.15516 | -1.60930 | 98 ft | 154 kts | 27° |
| 2026-04-27 15:57 | 47.16485 | -1.60193 | 668 ft | 153 kts | 29° |
| 2026-04-27 15:57 | 47.17188 | -1.59039 | 1192 ft | 161 kts | 78° |
| 2026-04-27 15:57 | 47.17057 | -1.57387 | 1788 ft | 174 kts | 114° |
| 2026-04-27 15:57 | 47.16148 | -1.56034 | 2058 ft | 203 kts | 147° |
| 2026-04-27 15:58 | 47.14830 | -1.54992 | 2329 ft | 226 kts | 150° |
| 2026-04-27 15:58 | 47.13343 | -1.53901 | 2597 ft | 252 kts | 151° |
| 2026-04-27 15:58 | 47.11708 | -1.52707 | 3163 ft | 267 kts | 151° |
| 2026-04-27 15:58 | 47.10039 | -1.51455 | 3962 ft | 271 kts | 150° |
| 2026-04-27 15:59 | 47.08367 | -1.50185 | 4870 ft | 271 kts | 150° |
| 2026-04-27 15:59 | 47.06725 | -1.48807 | 5695 ft | 272 kts | 140° |
| 2026-04-27 15:59 | 47.05292 | -1.46982 | 6480 ft | 275 kts | 136° |
| 2026-04-27 15:59 | 47.03856 | -1.45099 | 7244 ft | 278 kts | 137° |
| 2026-04-27 16:00 | 47.02403 | -1.43188 | 7987 ft | 282 kts | 136° |
| 2026-04-27 16:00 | 47.01432 | -1.41912 | 8488 ft | 284 kts | 137° |
| 2026-04-27 16:00 | 46.99465 | -1.39335 | 9472 ft | 289 kts | 137° |
| 2026-04-27 16:00 | 46.97951 | -1.37358 | 10187 ft | 293 kts | 138° |
| 2026-04-27 16:01 | 46.96385 | -1.35319 | 10533 ft | 312 kts | 138° |
| 2026-04-27 16:01 | 46.94704 | -1.33128 | 10675 ft | 335 kts | 138° |
| 2026-04-27 16:01 | 46.92902 | -1.30785 | 10803 ft | 357 kts | 138° |
| 2026-04-27 16:01 | 46.90995 | -1.28310 | 11046 ft | 373 kts | 139° |
| 2026-04-27 16:02 | 46.89036 | -1.25775 | 11599 ft | 378 kts | 139° |
| 2026-04-27 16:02 | 46.87058 | -1.23220 | 12221 ft | 381 kts | 139° |
| 2026-04-27 16:02 | 46.85057 | -1.20630 | 12834 ft | 385 kts | 139° |
| 2026-04-27 16:02 | 46.83047 | -1.18023 | 13451 ft | 388 kts | 139° |
| 2026-04-27 16:03 | 46.81023 | -1.15394 | 14066 ft | 391 kts | 139° |
| 2026-04-27 16:03 | 46.78983 | -1.12743 | 14599 ft | 395 kts | 139° |
| 2026-04-27 16:03 | 46.76923 | -1.10068 | 15118 ft | 399 kts | 139° |
| 2026-04-27 16:03 | 46.74841 | -1.07370 | 15636 ft | 402 kts | 139° |
| 2026-04-27 16:04 | 46.72738 | -1.04648 | 16162 ft | 406 kts | 140° |
| 2026-04-27 16:04 | 46.70620 | -1.01912 | 16676 ft | 409 kts | 140° |
| 2026-04-27 16:04 | 46.68474 | -0.99145 | 17190 ft | 413 kts | 140° |
| 2026-04-27 16:04 | 46.66314 | -0.96365 | 17692 ft | 416 kts | 140° |
| 2026-04-27 16:05 | 46.64134 | -0.93562 | 18176 ft | 420 kts | 140° |
| 2026-04-27 16:05 | 46.61965 | -0.90775 | 18625 ft | 423 kts | 140° |
| 2026-04-27 16:05 | 46.59750 | -0.87935 | 19043 ft | 426 kts | 141° |
| 2026-04-27 16:05 | 46.57519 | -0.85078 | 19466 ft | 429 kts | 141° |
| 2026-04-27 16:06 | 46.55282 | -0.82200 | 19871 ft | 431 kts | 141° |
| 2026-04-27 16:06 | 46.53028 | -0.79295 | 20273 ft | 434 kts | 141° |
| 2026-04-27 16:06 | 46.50767 | -0.76384 | 20705 ft | 435 kts | 141° |
| 2026-04-27 16:06 | 46.48497 | -0.73462 | 21094 ft | 437 kts | 141° |
| 2026-04-27 16:07 | 46.46219 | -0.70531 | 21491 ft | 439 kts | 141° |
| 2026-04-27 16:07 | 46.44020 | -0.67438 | 21865 ft | 443 kts | 134° |
| 2026-04-27 16:07 | 46.42155 | -0.63851 | 22226 ft | 449 kts | 125° |
| 2026-04-27 16:07 | 46.40652 | -0.59858 | 22576 ft | 453 kts | 120° |
| 2026-04-27 16:08 | 46.39224 | -0.55785 | 22920 ft | 455 kts | 120° |
| 2026-04-27 16:08 | 46.37781 | -0.51700 | 23256 ft | 457 kts | 120° |
| 2026-04-27 16:08 | 46.36325 | -0.47596 | 23584 ft | 459 kts | 120° |
| 2026-04-27 16:08 | 46.34864 | -0.43485 | 23900 ft | 460 kts | 120° |
| 2026-04-27 16:09 | 46.33416 | -0.39417 | 24166 ft | 462 kts | 120° |
| 2026-04-27 16:09 | 46.30457 | -0.31117 | 24654 ft | 466 kts | 121° |
| 2026-04-27 16:09 | 46.28966 | -0.26936 | 24890 ft | 468 kts | 121° |
| 2026-04-27 16:10 | 46.25963 | -0.18538 | 25337 ft | 472 kts | 121° |
| 2026-04-27 16:10 | 46.22923 | -0.10081 | 25791 ft | 476 kts | 121° |
| 2026-04-27 16:11 | 46.21390 | -0.05840 | 25995 ft | 478 kts | 121° |
| 2026-04-27 16:11 | 46.18431 | 0.02805 | 26364 ft | 485 kts | 114° |
| 2026-04-27 16:12 | 46.16685 | 0.12242 | 26699 ft | 493 kts | 106° |
| 2026-04-27 16:12 | 46.15903 | 0.17054 | 26933 ft | 493 kts | 106° |
| 2026-04-27 16:12 | 46.14312 | 0.26661 | 27474 ft | 492 kts | 106° |
| 2026-04-27 16:13 | 46.13509 | 0.31464 | 27738 ft | 492 kts | 106° |
| 2026-04-27 16:13 | 46.11912 | 0.41044 | 28250 ft | 491 kts | 106° |
| 2026-04-27 16:13 | 46.11110 | 0.45828 | 28514 ft | 491 kts | 106° |
| 2026-04-27 16:14 | 46.09500 | 0.55398 | 29048 ft | 491 kts | 106° |
| 2026-04-27 16:14 | 46.07883 | 0.64985 | 29109 ft | 493 kts | 106° |
| 2026-04-27 16:15 | 46.04630 | 0.84138 | 29112 ft | 493 kts | 106° |
| 2026-04-27 16:16 | 46.01325 | 1.03315 | 29113 ft | 493 kts | 106° |
| 2026-04-27 16:17 | 45.97998 | 1.22432 | 29108 ft | 492 kts | 106° |
| 2026-04-27 16:18 | 45.95127 | 1.41641 | 29109 ft | 493 kts | 94° |
| 2026-04-27 16:19 | 45.95393 | 1.51492 | 29109 ft | 494 kts | 87° |
| 2026-04-27 16:20 | 45.96158 | 1.71104 | 29109 ft | 493 kts | 88° |
| 2026-04-27 16:21 | 45.96701 | 1.85889 | 29093 ft | 493 kts | 88° |
| 2026-04-27 16:22 | 45.97414 | 2.05586 | 29090 ft | 493 kts | 88° |
| 2026-04-27 16:22 | 45.97913 | 2.20298 | 29092 ft | 493 kts | 88° |
| 2026-04-27 16:23 | 45.98399 | 2.35078 | 29097 ft | 494 kts | 88° |
| 2026-04-27 16:24 | 45.98713 | 2.44941 | 29099 ft | 493 kts | 88° |
| 2026-04-27 16:25 | 45.99282 | 2.63056 | 29098 ft | 494 kts | 88° |
| 2026-04-27 16:26 | 45.99547 | 2.82725 | 29092 ft | 492 kts | 98° |
| 2026-04-27 16:27 | 45.96683 | 3.01918 | 29079 ft | 491 kts | 104° |
| 2026-04-27 16:28 | 45.92927 | 3.25832 | 29073 ft | 490 kts | 104° |
| 2026-04-27 16:29 | 45.89110 | 3.49607 | 29079 ft | 490 kts | 104° |
| 2026-04-27 16:30 | 45.86102 | 3.68672 | 29088 ft | 490 kts | 103° |
| 2026-04-27 16:31 | 45.82426 | 3.92550 | 29095 ft | 490 kts | 104° |
| 2026-04-27 16:32 | 45.80170 | 4.06787 | 29090 ft | 491 kts | 104° |
| 2026-04-27 16:33 | 45.78649 | 4.16355 | 29481 ft | 493 kts | 104° |
| 2026-04-27 16:33 | 45.77887 | 4.21140 | 29720 ft | 492 kts | 104° |
| 2026-04-27 16:33 | 45.77123 | 4.25917 | 29962 ft | 492 kts | 104° |
| 2026-04-27 16:33 | 45.76357 | 4.30691 | 30201 ft | 492 kts | 104° |
| 2026-04-27 16:34 | 45.75588 | 4.35470 | 30412 ft | 491 kts | 104° |
| 2026-04-27 16:34 | 45.74821 | 4.40239 | 30615 ft | 491 kts | 104° |
| 2026-04-27 16:34 | 45.74054 | 4.45001 | 30835 ft | 490 kts | 104° |
| 2026-04-27 16:34 | 45.73285 | 4.49756 | 31037 ft | 490 kts | 104° |
| 2026-04-27 16:35 | 45.72514 | 4.54505 | 31238 ft | 490 kts | 104° |
| 2026-04-27 16:35 | 45.71735 | 4.59256 | 31455 ft | 489 kts | 104° |
| 2026-04-27 16:35 | 45.70175 | 4.68731 | 31868 ft | 489 kts | 104° |
| 2026-04-27 16:36 | 45.69395 | 4.73451 | 32085 ft | 488 kts | 104° |
| 2026-04-27 16:36 | 45.68615 | 4.78169 | 32316 ft | 487 kts | 104° |
| 2026-04-27 16:36 | 45.67847 | 4.82817 | 32523 ft | 486 kts | 104° |
| 2026-04-27 16:36 | 45.67071 | 4.87519 | 32723 ft | 486 kts | 104° |
| 2026-04-27 16:37 | 45.66291 | 4.92215 | 32942 ft | 484 kts | 104° |
| 2026-04-27 16:37 | 45.65511 | 4.96894 | 33171 ft | 484 kts | 104° |
| 2026-04-27 16:37 | 45.64728 | 5.01569 | 33387 ft | 483 kts | 104° |
| 2026-04-27 16:37 | 45.63943 | 5.06232 | 33603 ft | 482 kts | 104° |
| 2026-04-27 16:38 | 45.63160 | 5.10874 | 33817 ft | 482 kts | 104° |
| 2026-04-27 16:38 | 45.62373 | 5.15532 | 34030 ft | 481 kts | 103° |
| 2026-04-27 16:38 | 45.61590 | 5.20169 | 34213 ft | 481 kts | 104° |
| 2026-04-27 16:38 | 45.60805 | 5.24811 | 34388 ft | 480 kts | 104° |
| 2026-04-27 16:39 | 45.60020 | 5.29448 | 34560 ft | 480 kts | 104° |
| 2026-04-27 16:39 | 45.59234 | 5.34080 | 34740 ft | 480 kts | 104° |
| 2026-04-27 16:39 | 45.58444 | 5.38708 | 34912 ft | 480 kts | 104° |
| 2026-04-27 16:39 | 45.57648 | 5.43336 | 35061 ft | 480 kts | 104° |
| 2026-04-27 16:40 | 45.56847 | 5.47963 | 35091 ft | 480 kts | 104° |
| 2026-04-27 16:40 | 45.55224 | 5.57204 | 35086 ft | 480 kts | 104° |
| 2026-04-27 16:41 | 45.53493 | 5.66353 | 35066 ft | 480 kts | 105° |
| 2026-04-27 16:41 | 45.51709 | 5.75516 | 35063 ft | 479 kts | 105° |
| 2026-04-27 16:42 | 45.49928 | 5.84679 | 35059 ft | 479 kts | 105° |
| 2026-04-27 16:42 | 45.47958 | 5.93754 | 35068 ft | 479 kts | 114° |
| 2026-04-27 16:43 | 45.44499 | 6.01822 | 35077 ft | 477 kts | 130° |
| 2026-04-27 16:43 | 45.40315 | 6.09159 | 35086 ft | 477 kts | 130° |
| 2026-04-27 16:44 | 45.36138 | 6.16491 | 35108 ft | 477 kts | 130° |
| 2026-04-27 16:44 | 45.31990 | 6.23759 | 35111 ft | 475 kts | 130° |
| 2026-04-27 16:45 | 45.27813 | 6.31066 | 35112 ft | 476 kts | 130° |
| 2026-04-27 16:45 | 45.23634 | 6.38357 | 35124 ft | 476 kts | 130° |
| 2026-04-27 16:46 | 45.19453 | 6.45621 | 35122 ft | 475 kts | 129° |
| 2026-04-27 16:46 | 45.15265 | 6.52869 | 35128 ft | 474 kts | 129° |
| 2026-04-27 16:47 | 45.11511 | 6.60509 | 35131 ft | 472 kts | 116° |
| 2026-04-27 16:47 | 45.09214 | 6.69173 | 35126 ft | 470 kts | 107° |
| 2026-04-27 16:48 | 45.07132 | 6.77956 | 35129 ft | 471 kts | 108° |
| 2026-04-27 16:48 | 45.05042 | 6.86722 | 35121 ft | 470 kts | 108° |
| 2026-04-27 16:49 | 45.01904 | 6.99873 | 35114 ft | 471 kts | 108° |
| 2026-04-27 16:49 | 44.99802 | 7.08645 | 35106 ft | 471 kts | 108° |
| 2026-04-27 16:50 | 44.98201 | 7.17535 | 35105 ft | 469 kts | 95° |
| 2026-04-27 16:50 | 44.98104 | 7.26722 | 35077 ft | 467 kts | 88° |
| 2026-04-27 16:51 | 44.98163 | 7.35908 | 35056 ft | 468 kts | 88° |
| 2026-04-27 16:51 | 44.97675 | 7.45076 | 35056 ft | 470 kts | 98° |
| 2026-04-27 16:52 | 44.96576 | 7.54176 | 35058 ft | 470 kts | 98° |
| 2026-04-27 16:52 | 44.95491 | 7.63290 | 35059 ft | 470 kts | 98° |
| 2026-04-27 16:53 | 44.94412 | 7.72342 | 35048 ft | 471 kts | 98° |
| 2026-04-27 16:53 | 44.93307 | 7.81463 | 35041 ft | 471 kts | 98° |
| 2026-04-27 16:54 | 44.92185 | 7.90580 | 35042 ft | 472 kts | 98° |
| 2026-04-27 16:54 | 44.91062 | 7.99702 | 35046 ft | 472 kts | 98° |
| 2026-04-27 16:55 | 44.89934 | 8.08822 | 35062 ft | 471 kts | 98° |
| 2026-04-27 16:55 | 44.88807 | 8.17870 | 35067 ft | 471 kts | 98° |
| 2026-04-27 16:56 | 44.87659 | 8.27019 | 35072 ft | 471 kts | 98° |
| 2026-04-27 16:56 | 44.86512 | 8.36054 | 35072 ft | 471 kts | 98° |
| 2026-04-27 16:57 | 44.85357 | 8.45140 | 35075 ft | 470 kts | 98° |
| 2026-04-27 16:57 | 44.84199 | 8.54199 | 35078 ft | 469 kts | 98° |
| 2026-04-27 16:58 | 44.83036 | 8.63243 | 35076 ft | 469 kts | 98° |
| 2026-04-27 16:58 | 44.81866 | 8.72274 | 35084 ft | 468 kts | 98° |
| 2026-04-27 16:59 | 44.80696 | 8.81292 | 35090 ft | 468 kts | 98° |
| 2026-04-27 16:59 | 44.79515 | 8.90288 | 35090 ft | 467 kts | 98° |
| 2026-04-27 17:00 | 44.77727 | 9.03726 | 35081 ft | 466 kts | 98° |
| 2026-04-27 17:01 | 44.76534 | 9.12697 | 35078 ft | 466 kts | 98° |
| 2026-04-27 17:01 | 44.75331 | 9.21651 | 35083 ft | 465 kts | 98° |
| 2026-04-27 17:02 | 44.74126 | 9.30596 | 35080 ft | 464 kts | 99° |
| 2026-04-27 17:02 | 44.72915 | 9.39483 | 35068 ft | 464 kts | 99° |
| 2026-04-27 17:03 | 44.71695 | 9.48387 | 35054 ft | 464 kts | 99° |
| 2026-04-27 17:03 | 44.70471 | 9.57293 | 35054 ft | 463 kts | 99° |
| 2026-04-27 17:04 | 44.69237 | 9.66186 | 35050 ft | 463 kts | 99° |
| 2026-04-27 17:04 | 44.67997 | 9.75063 | 35048 ft | 463 kts | 99° |
| 2026-04-27 17:05 | 44.66756 | 9.83938 | 35041 ft | 463 kts | 99° |
| 2026-04-27 17:05 | 44.65515 | 9.92748 | 35055 ft | 463 kts | 99° |
| 2026-04-27 17:06 | 44.64253 | 10.01613 | 35054 ft | 462 kts | 99° |
| 2026-04-27 17:06 | 44.62987 | 10.10469 | 35051 ft | 462 kts | 99° |
| 2026-04-27 17:07 | 44.61717 | 10.19310 | 35053 ft | 462 kts | 99° |
| 2026-04-27 17:07 | 44.60438 | 10.28167 | 35057 ft | 462 kts | 99° |
| 2026-04-27 17:08 | 44.59159 | 10.37009 | 35057 ft | 462 kts | 99° |
| 2026-04-27 17:08 | 44.57867 | 10.45855 | 35053 ft | 463 kts | 99° |
| 2026-04-27 17:09 | 44.56569 | 10.54697 | 35058 ft | 463 kts | 99° |
| 2026-04-27 17:09 | 44.55273 | 10.63489 | 35055 ft | 463 kts | 99° |
| 2026-04-27 17:10 | 44.54173 | 10.70889 | 35056 ft | 463 kts | 99° |
| 2026-04-27 17:10 | 44.52642 | 10.81157 | 35052 ft | 463 kts | 99° |
| 2026-04-27 17:11 | 44.51543 | 10.88499 | 35056 ft | 463 kts | 99° |
| 2026-04-27 17:11 | 44.49539 | 11.01739 | 35057 ft | 463 kts | 100° |
| 2026-04-27 17:12 | 44.47522 | 11.14988 | 35059 ft | 464 kts | 100° |
| 2026-04-27 17:13 | 44.46168 | 11.23812 | 35057 ft | 464 kts | 100° |
| 2026-04-27 17:13 | 44.44806 | 11.32629 | 35037 ft | 463 kts | 100° |
| 2026-04-27 17:14 | 44.43437 | 11.41439 | 35034 ft | 463 kts | 100° |
| 2026-04-27 17:14 | 44.42068 | 11.50253 | 35039 ft | 464 kts | 100° |
| 2026-04-27 17:15 | 44.40686 | 11.59073 | 35050 ft | 464 kts | 100° |
| 2026-04-27 17:15 | 44.39302 | 11.67831 | 35061 ft | 463 kts | 100° |
| 2026-04-27 17:16 | 44.37911 | 11.76638 | 35056 ft | 464 kts | 100° |
| 2026-04-27 17:16 | 44.36514 | 11.85453 | 35055 ft | 464 kts | 101° |
| 2026-04-27 17:17 | 44.35100 | 11.94239 | 35061 ft | 464 kts | 101° |
| 2026-04-27 17:17 | 44.33678 | 12.03037 | 35053 ft | 464 kts | 101° |
| 2026-04-27 17:18 | 44.31547 | 12.16177 | 35060 ft | 464 kts | 101° |
| 2026-04-27 17:18 | 44.30113 | 12.24969 | 35062 ft | 464 kts | 101° |
| 2026-04-27 17:19 | 44.28679 | 12.33754 | 35075 ft | 464 kts | 101° |
| 2026-04-27 17:19 | 44.27231 | 12.42538 | 35081 ft | 464 kts | 101° |
| 2026-04-27 17:20 | 44.25784 | 12.51271 | 35072 ft | 465 kts | 101° |
| 2026-04-27 17:20 | 44.24315 | 12.60103 | 35068 ft | 465 kts | 101° |
| 2026-04-27 17:21 | 44.22840 | 12.68885 | 35049 ft | 465 kts | 101° |
| 2026-04-27 17:21 | 44.21373 | 12.77611 | 35053 ft | 465 kts | 101° |
| 2026-04-27 17:22 | 44.19895 | 12.86391 | 35054 ft | 465 kts | 101° |
| 2026-04-27 17:22 | 44.18399 | 12.95161 | 35052 ft | 465 kts | 102° |
| 2026-04-27 17:23 | 44.16896 | 13.03932 | 35057 ft | 465 kts | 102° |
| 2026-04-27 17:23 | 44.15394 | 13.12701 | 35057 ft | 466 kts | 102° |
| 2026-04-27 17:24 | 44.13884 | 13.21472 | 35054 ft | 466 kts | 102° |
| 2026-04-27 17:24 | 44.12360 | 13.30246 | 35053 ft | 466 kts | 102° |
| 2026-04-27 17:25 | 44.10833 | 13.39028 | 35056 ft | 467 kts | 102° |
| 2026-04-27 17:25 | 44.09299 | 13.47805 | 35061 ft | 467 kts | 102° |
| 2026-04-27 17:26 | 44.07754 | 13.56584 | 35065 ft | 467 kts | 102° |
| 2026-04-27 17:26 | 44.06215 | 13.65303 | 35067 ft | 467 kts | 102° |
| 2026-04-27 17:27 | 44.04652 | 13.74137 | 35064 ft | 468 kts | 102° |
| 2026-04-27 17:27 | 44.03095 | 13.82851 | 35069 ft | 468 kts | 102° |
| 2026-04-27 17:28 | 44.01363 | 13.91579 | 35071 ft | 469 kts | 110° |
| 2026-04-27 17:29 | 43.96782 | 14.03605 | 35070 ft | 471 kts | 118° |
| 2026-04-27 17:29 | 43.93551 | 14.11524 | 35070 ft | 471 kts | 118° |
| 2026-04-27 17:30 | 43.90317 | 14.19433 | 35073 ft | 471 kts | 118° |
| 2026-04-27 17:30 | 43.85469 | 14.31280 | 35075 ft | 471 kts | 118° |
| 2026-04-27 17:31 | 43.82248 | 14.39122 | 35072 ft | 471 kts | 119° |
| 2026-04-27 17:31 | 43.78993 | 14.46994 | 35072 ft | 471 kts | 119° |
| 2026-04-27 17:32 | 43.74106 | 14.58801 | 35075 ft | 471 kts | 119° |
| 2026-04-27 17:33 | 43.70840 | 14.66665 | 35075 ft | 472 kts | 119° |
| 2026-04-27 17:33 | 43.67568 | 14.74533 | 35081 ft | 472 kts | 119° |
| 2026-04-27 17:34 | 43.64288 | 14.82394 | 35084 ft | 472 kts | 119° |
| 2026-04-27 17:34 | 43.60999 | 14.90239 | 35087 ft | 472 kts | 119° |
| 2026-04-27 17:35 | 43.57724 | 14.98039 | 35097 ft | 472 kts | 119° |
| 2026-04-27 17:35 | 43.54430 | 15.05858 | 35093 ft | 471 kts | 119° |
| 2026-04-27 17:36 | 43.51143 | 15.13665 | 35094 ft | 471 kts | 119° |
| 2026-04-27 17:36 | 43.47848 | 15.21469 | 35089 ft | 471 kts | 119° |
| 2026-04-27 17:37 | 43.44527 | 15.29259 | 35091 ft | 471 kts | 119° |
| 2026-04-27 17:37 | 43.41228 | 15.37006 | 35088 ft | 471 kts | 119° |
| 2026-04-27 17:38 | 43.37913 | 15.44786 | 35090 ft | 471 kts | 119° |
| 2026-04-27 17:38 | 43.34587 | 15.52565 | 35088 ft | 471 kts | 119° |
| 2026-04-27 17:39 | 43.31254 | 15.60331 | 35093 ft | 471 kts | 119° |
| 2026-04-27 17:39 | 43.27923 | 15.68071 | 35094 ft | 471 kts | 119° |
| 2026-04-27 17:40 | 43.24587 | 15.75805 | 35096 ft | 471 kts | 119° |
| 2026-04-27 17:40 | 43.21251 | 15.83516 | 35095 ft | 470 kts | 119° |
| 2026-04-27 17:41 | 43.17908 | 15.91221 | 35090 ft | 470 kts | 119° |
| 2026-04-27 17:41 | 43.14567 | 15.98923 | 35084 ft | 470 kts | 119° |
| 2026-04-27 17:42 | 43.11219 | 16.06613 | 35091 ft | 470 kts | 119° |
| 2026-04-27 17:42 | 43.07884 | 16.14243 | 35086 ft | 470 kts | 119° |
| 2026-04-27 17:43 | 43.04522 | 16.21917 | 35079 ft | 470 kts | 119° |
| 2026-04-27 17:43 | 43.01156 | 16.29589 | 35078 ft | 470 kts | 119° |
| 2026-04-27 17:44 | 42.97774 | 16.37246 | 35090 ft | 470 kts | 119° |
| 2026-04-27 17:44 | 42.94400 | 16.44889 | 35084 ft | 471 kts | 119° |
| 2026-04-27 17:45 | 42.91008 | 16.52554 | 35082 ft | 471 kts | 119° |
| 2026-04-27 17:45 | 42.87632 | 16.60161 | 35079 ft | 471 kts | 119° |
| 2026-04-27 17:46 | 42.84233 | 16.67800 | 35082 ft | 471 kts | 119° |
| 2026-04-27 17:46 | 42.80826 | 16.75431 | 35091 ft | 472 kts | 119° |
| 2026-04-27 17:47 | 42.77413 | 16.83063 | 35074 ft | 472 kts | 120° |
| 2026-04-27 17:47 | 42.73983 | 16.90705 | 35074 ft | 473 kts | 120° |
| 2026-04-27 17:48 | 42.70545 | 16.98340 | 35071 ft | 474 kts | 120° |
| 2026-04-27 17:48 | 42.67124 | 17.05935 | 35090 ft | 474 kts | 120° |
| 2026-04-27 17:49 | 42.63677 | 17.13567 | 35092 ft | 474 kts | 120° |
| 2026-04-27 17:49 | 42.60220 | 17.21203 | 35090 ft | 474 kts | 120° |
| 2026-04-27 17:50 | 42.56761 | 17.28831 | 35086 ft | 475 kts | 120° |
| 2026-04-27 17:50 | 42.51551 | 17.40251 | 35093 ft | 475 kts | 120° |
| 2026-04-27 17:51 | 42.48072 | 17.47860 | 35076 ft | 475 kts | 120° |
| 2026-04-27 17:51 | 42.44586 | 17.55468 | 35069 ft | 476 kts | 120° |
| 2026-04-27 17:52 | 42.41086 | 17.63079 | 35067 ft | 476 kts | 121° |
| 2026-04-27 17:52 | 42.38165 | 17.69417 | 35069 ft | 477 kts | 121° |
| 2026-04-27 17:53 | 42.34089 | 17.78261 | 35085 ft | 477 kts | 121° |
| 2026-04-27 17:53 | 42.30540 | 17.85917 | 35076 ft | 478 kts | 121° |
| 2026-04-27 17:54 | 42.27003 | 17.93523 | 35078 ft | 478 kts | 121° |
| 2026-04-27 17:54 | 42.23463 | 18.01124 | 35073 ft | 478 kts | 121° |
| 2026-04-27 17:55 | 42.19919 | 18.08711 | 35074 ft | 478 kts | 121° |
| 2026-04-27 17:55 | 42.16368 | 18.16297 | 35056 ft | 478 kts | 121° |
| 2026-04-27 17:56 | 42.12830 | 18.23840 | 35060 ft | 479 kts | 121° |
| 2026-04-27 17:56 | 42.09262 | 18.31427 | 35062 ft | 479 kts | 121° |
| 2026-04-27 17:57 | 42.06292 | 18.37734 | 35064 ft | 480 kts | 121° |
| 2026-04-27 17:57 | 42.02710 | 18.45316 | 35072 ft | 480 kts | 122° |
| 2026-04-27 17:58 | 41.99120 | 18.52906 | 35067 ft | 480 kts | 122° |
| 2026-04-27 17:58 | 41.95533 | 18.60462 | 35067 ft | 480 kts | 122° |
| 2026-04-27 17:59 | 41.91308 | 18.67376 | 35062 ft | 480 kts | 138° |
| 2026-04-27 17:59 | 41.85988 | 18.72689 | 35049 ft | 479 kts | 146° |
| 2026-04-27 18:00 | 41.80505 | 18.77807 | 35057 ft | 480 kts | 146° |
| 2026-04-27 18:00 | 41.75020 | 18.82916 | 35064 ft | 480 kts | 146° |
| 2026-04-27 18:01 | 41.69545 | 18.88027 | 35073 ft | 480 kts | 146° |
| 2026-04-27 18:01 | 41.64094 | 18.93099 | 35065 ft | 480 kts | 147° |
| 2026-04-27 18:02 | 41.58610 | 18.98190 | 35064 ft | 480 kts | 147° |
| 2026-04-27 18:02 | 41.53119 | 19.03270 | 35072 ft | 480 kts | 147° |
| 2026-04-27 18:03 | 41.47616 | 19.08327 | 35079 ft | 480 kts | 149° |
| 2026-04-27 18:03 | 41.41630 | 19.12082 | 35080 ft | 475 kts | 163° |
| 2026-04-27 18:04 | 41.35428 | 19.15100 | 35070 ft | 474 kts | 163° |
| 2026-04-27 18:04 | 41.29228 | 19.18125 | 35078 ft | 474 kts | 163° |
| 2026-04-27 18:05 | 41.23065 | 19.21121 | 35082 ft | 474 kts | 163° |
| 2026-04-27 18:05 | 41.16865 | 19.24131 | 35085 ft | 474 kts | 163° |
| 2026-04-27 18:06 | 41.10664 | 19.27137 | 35089 ft | 474 kts | 163° |
| 2026-04-27 18:06 | 41.04459 | 19.30145 | 35090 ft | 474 kts | 163° |
| 2026-04-27 18:07 | 40.98254 | 19.33146 | 35087 ft | 474 kts | 163° |
| 2026-04-27 18:07 | 40.92052 | 19.36138 | 35075 ft | 474 kts | 163° |
| 2026-04-27 18:08 | 40.85851 | 19.39121 | 35080 ft | 474 kts | 163° |
| 2026-04-27 18:08 | 40.79648 | 19.42095 | 35082 ft | 474 kts | 163° |
| 2026-04-27 18:09 | 40.73443 | 19.45061 | 35073 ft | 474 kts | 163° |
| 2026-04-27 18:09 | 40.67279 | 19.48010 | 35076 ft | 474 kts | 163° |
| 2026-04-27 18:10 | 40.61079 | 19.50970 | 35080 ft | 474 kts | 163° |
| 2026-04-27 18:10 | 40.54877 | 19.53927 | 35085 ft | 474 kts | 163° |
| 2026-04-27 18:11 | 40.48670 | 19.56874 | 35081 ft | 474 kts | 163° |
| 2026-04-27 18:11 | 40.42466 | 19.59806 | 35084 ft | 474 kts | 163° |
| 2026-04-27 18:12 | 40.36257 | 19.62749 | 34813 ft | 474 kts | 163° |
| 2026-04-27 18:12 | 40.33140 | 19.64224 | 33869 ft | 478 kts | 163° |
| 2026-04-27 18:12 | 40.30036 | 19.65687 | 32870 ft | 480 kts | 163° |
| 2026-04-27 18:13 | 40.26891 | 19.67165 | 31840 ft | 481 kts | 163° |
| 2026-04-27 18:13 | 40.23726 | 19.68655 | 30829 ft | 483 kts | 162° |
| 2026-04-27 18:13 | 40.20555 | 19.70150 | 29673 ft | 485 kts | 162° |
| 2026-04-27 18:13 | 40.17368 | 19.71649 | 28457 ft | 487 kts | 162° |
| 2026-04-27 18:14 | 40.14173 | 19.73153 | 27312 ft | 487 kts | 162° |
| 2026-04-27 18:14 | 40.10976 | 19.74655 | 26021 ft | 490 kts | 162° |
| 2026-04-27 18:14 | 40.07759 | 19.76161 | 24764 ft | 493 kts | 162° |
| 2026-04-27 18:14 | 40.04536 | 19.77666 | 23499 ft | 486 kts | 162° |
| 2026-04-27 18:15 | 40.01405 | 19.79132 | 22410 ft | 469 kts | 162° |
| 2026-04-27 18:15 | 39.98398 | 19.80542 | 21600 ft | 464 kts | 162° |
| 2026-04-27 18:15 | 39.95370 | 19.81953 | 20733 ft | 461 kts | 161° |
| 2026-04-27 18:15 | 39.92351 | 19.83353 | 19892 ft | 459 kts | 161° |
| 2026-04-27 18:16 | 39.89349 | 19.84747 | 19065 ft | 456 kts | 161° |
| 2026-04-27 18:16 | 39.86291 | 19.85782 | 18167 ft | 453 kts | 174° |
| 2026-04-27 18:16 | 39.83165 | 19.85699 | 17280 ft | 447 kts | 191° |
| 2026-04-27 18:16 | 39.80264 | 19.84484 | 16422 ft | 428 kts | 207° |
| 2026-04-27 18:17 | 39.77872 | 19.82320 | 15437 ft | 410 kts | 226° |
| 2026-04-27 18:17 | 39.76131 | 19.79534 | 14855 ft | 387 kts | 237° |
| 2026-04-27 18:17 | 39.74408 | 19.76797 | 14217 ft | 401 kts | 223° |
| 2026-04-27 18:17 | 39.72164 | 19.74633 | 13538 ft | 406 kts | 215° |
| 2026-04-27 18:18 | 39.69831 | 19.72563 | 12829 ft | 404 kts | 215° |
| 2026-04-27 18:18 | 39.67519 | 19.70492 | 12145 ft | 403 kts | 215° |
| 2026-04-27 18:18 | 39.65230 | 19.68413 | 11476 ft | 399 kts | 215° |
| 2026-04-27 18:18 | 39.63007 | 19.66365 | 10799 ft | 382 kts | 215° |
| 2026-04-27 18:19 | 39.60910 | 19.64415 | 10153 ft | 361 kts | 215° |
| 2026-04-27 18:19 | 39.58925 | 19.62546 | 9468 ft | 344 kts | 215° |
| 2026-04-27 18:19 | 39.57033 | 19.60759 | 8765 ft | 330 kts | 215° |
| 2026-04-27 18:19 | 39.55211 | 19.59040 | 8087 ft | 318 kts | 215° |
| 2026-04-27 18:20 | 39.53449 | 19.57379 | 7419 ft | 308 kts | 215° |
| 2026-04-27 18:20 | 39.51736 | 19.55766 | 6769 ft | 300 kts | 215° |
| 2026-04-27 18:20 | 39.49961 | 19.54430 | 6103 ft | 292 kts | 199° |
| 2026-04-27 18:20 | 39.48031 | 19.54010 | 5847 ft | 272 kts | 178° |
| 2026-04-27 18:21 | 39.46195 | 19.54435 | 5717 ft | 268 kts | 159° |
| 2026-04-27 18:21 | 39.44594 | 19.55640 | 5593 ft | 269 kts | 139° |
| 2026-04-27 18:21 | 39.43404 | 19.57510 | 5474 ft | 273 kts | 119° |
| 2026-04-27 18:21 | 39.42745 | 19.59800 | 5351 ft | 273 kts | 107° |
| 2026-04-27 18:22 | 39.42230 | 19.62130 | 5226 ft | 273 kts | 107° |
| 2026-04-27 18:22 | 39.41704 | 19.64493 | 5105 ft | 274 kts | 107° |
| 2026-04-27 18:22 | 39.41174 | 19.66856 | 4981 ft | 274 kts | 107° |
| 2026-04-27 18:22 | 39.40645 | 19.69219 | 4846 ft | 273 kts | 107° |
| 2026-04-27 18:23 | 39.40116 | 19.71580 | 4724 ft | 273 kts | 107° |
| 2026-04-27 18:23 | 39.39753 | 19.73991 | 4590 ft | 274 kts | 93° |
| 2026-04-27 18:23 | 39.39766 | 19.76450 | 4464 ft | 274 kts | 89° |
| 2026-04-27 18:23 | 39.39800 | 19.78906 | 4337 ft | 273 kts | 89° |
| 2026-04-27 18:24 | 39.39834 | 19.81358 | 4204 ft | 273 kts | 90° |
| 2026-04-27 18:24 | 39.39867 | 19.83769 | 4009 ft | 264 kts | 90° |
| 2026-04-27 18:24 | 39.39900 | 19.86072 | 3948 ft | 248 kts | 90° |
| 2026-04-27 18:24 | 39.40090 | 19.88246 | 3884 ft | 234 kts | 76° |
| 2026-04-27 18:25 | 39.40532 | 19.90190 | 3788 ft | 222 kts | 75° |
| 2026-04-27 18:25 | 39.40961 | 19.92060 | 3696 ft | 211 kts | 74° |
| 2026-04-27 18:25 | 39.41366 | 19.93840 | 3592 ft | 201 kts | 75° |
| 2026-04-27 18:25 | 39.41769 | 19.95536 | 3543 ft | 196 kts | 69° |
| 2026-04-27 18:26 | 39.42638 | 19.96847 | 3431 ft | 196 kts | 28° |
| 2026-04-27 18:26 | 39.43951 | 19.97187 | 3178 ft | 196 kts | 350° |
| 2026-04-27 18:26 | 39.45258 | 19.96727 | 2891 ft | 194 kts | 343° |
| 2026-04-27 18:26 | 39.46545 | 19.96235 | 2626 ft | 192 kts | 343° |
| 2026-04-27 18:27 | 39.47819 | 19.95750 | 2349 ft | 190 kts | 344° |
| 2026-04-27 18:27 | 39.49071 | 19.95277 | 2092 ft | 186 kts | 344° |
| 2026-04-27 18:27 | 39.50305 | 19.94809 | 1832 ft | 183 kts | 345° |
| 2026-04-27 18:27 | 39.51501 | 19.94359 | 1575 ft | 173 kts | 344° |
| 2026-04-27 18:28 | 39.52611 | 19.93940 | 1360 ft | 160 kts | 343° |
| 2026-04-27 18:28 | 39.53638 | 19.93552 | 1162 ft | 149 kts | 343° |
| 2026-04-27 18:28 | 39.54617 | 19.93180 | 973 ft | 145 kts | 340° |
| 2026-04-27 18:28 | 39.55512 | 19.92659 | 741 ft | 142 kts | 334° |
| 2026-04-27 18:29 | 39.56436 | 19.92227 | 564 ft | 141 kts | 345° |
| 2026-04-27 18:29 | 39.57389 | 19.91918 | 388 ft | 141 kts | 346° |
| 2026-04-27 18:29 | 39.58350 | 19.91673 | 220 ft | 141 kts | 347° |
| 2026-04-27 18:29 | 39.59308 | 19.91431 | 50 ft | 140 kts | 348° |
| 2026-04-27 18:30 | 39.60206 | 19.91197 | 11 ft | 106 kts | 349° |
| 2026-04-27 18:30 | 39.60661 | 19.91086 | 8 ft | 46 kts | 349° |
| 2026-04-27 18:30 | 39.60956 | 19.91015 | 9 ft | 32 kts | 349° |
| 2026-04-27 18:30 | 39.61055 | 19.91074 | 9 ft | 11 kts | 56° |
| 2026-04-27 18:31 | 39.61028 | 19.91131 | 9 ft | 8 kts | 159° |
| 2026-04-27 18:31 | 39.60968 | 19.91149 | 9 ft | 13 kts | 169° |
| 2026-04-27 18:31 | 39.60874 | 19.91170 | 9 ft | 13 kts | 170° |
| 2026-04-27 18:31 | 39.60806 | 19.91219 | 9 ft | 11 kts | 94° |
| 2026-04-27 18:32 | 39.60816 | 19.91295 | 9 ft | 3 kts | 78° |
| 2026-04-27 18:32 | 39.60817 | 19.91298 | 9 ft | 0 kts | 78° |